createdAt,value
2018-12-27T00:00:23.011Z,80.70
2018-12-27T00:02:54.997Z,80.30
2018-12-27T00:05:22.962Z,80.70
2018-12-27T00:07:51.895Z,81.30
2018-12-27T00:10:20.856Z,81.60
2018-12-27T00:12:49.983Z,80.70
2018-12-27T00:15:18.940Z,80.60
2018-12-27T00:17:47.921Z,81.60
2018-12-27T00:20:16.946Z,80.40
2018-12-27T00:22:46.070Z,80.50
2018-12-27T00:25:15.283Z,80.30
2018-12-27T00:27:44.277Z,80.80
2018-12-27T00:30:13.601Z,80.90
2018-12-27T00:32:42.991Z,81.10
2018-12-27T00:35:12.145Z,81.40
2018-12-27T00:37:41.511Z,81.10
2018-12-27T00:40:10.750Z,80.90
2018-12-27T00:42:40.083Z,80.80
2018-12-27T00:45:09.466Z,80.10
2018-12-27T00:47:38.919Z,79.80
2018-12-27T00:50:08.395Z,80.80
2018-12-27T00:52:38.745Z,80.20
2018-12-27T00:55:08.074Z,80.10
2018-12-27T00:57:37.254Z,80.50
2018-12-27T01:00:07.517Z,80.40
2018-12-27T01:02:37.621Z,80.40
2018-12-27T01:05:06.967Z,80.20
2018-12-27T01:07:36.309Z,80.10
2018-12-27T01:10:05.585Z,79.90
2018-12-27T01:12:35.000Z,80.30
2018-12-27T01:15:04.363Z,79.50
2018-12-27T01:17:33.766Z,79.40
2018-12-27T01:20:03.003Z,80.70
2018-12-27T01:22:32.355Z,79.80
2018-12-27T01:25:01.781Z,79.60
2018-12-27T01:27:33.915Z,79.50
2018-12-27T01:30:03.188Z,79.90
2018-12-27T01:32:32.342Z,80.10
2018-12-27T01:35:01.690Z,80.40
2018-12-27T01:37:30.979Z,80.80
2018-12-27T01:40:00.367Z,81.50
2018-12-27T01:42:29.713Z,81.10
2018-12-27T01:44:58.881Z,80.90
2018-12-27T01:47:28.180Z,80.60
2018-12-27T01:49:57.442Z,81.30
2018-12-27T01:52:26.841Z,81.20
2018-12-27T01:54:56.159Z,81.00
2018-12-27T01:57:25.540Z,80.70
2018-12-27T01:59:54.776Z,80.60
2018-12-27T02:02:24.173Z,80.60
2018-12-27T02:04:53.557Z,80.70
2018-12-27T02:07:23.255Z,81.00
2018-12-27T02:09:52.511Z,81.00
2018-12-27T02:12:22.355Z,80.50
2018-12-27T02:14:51.879Z,80.40
2018-12-27T02:17:21.374Z,80.80
2018-12-27T02:19:50.494Z,80.20
2018-12-27T02:22:19.972Z,80.20
2018-12-27T02:24:49.465Z,80.40
2018-12-27T02:27:18.927Z,81.50
2018-12-27T02:29:48.222Z,80.30
2018-12-27T02:32:17.692Z,81.00
2018-12-27T02:34:46.975Z,81.10
2018-12-27T02:37:16.359Z,81.90
2018-12-27T02:39:45.744Z,82.60
2018-12-27T02:42:15.248Z,83.00
2018-12-27T02:44:44.620Z,83.50
2018-12-27T02:47:14.088Z,83.60
2018-12-27T02:49:43.512Z,82.80
2018-12-27T02:52:12.901Z,84.40
2018-12-27T02:54:42.270Z,83.60
2018-12-27T02:57:11.689Z,84.70
2018-12-27T02:59:41.064Z,84.20
2018-12-27T03:02:10.536Z,85.10
2018-12-27T03:04:39.897Z,85.00
2018-12-27T03:07:09.306Z,85.70
2018-12-27T03:09:38.804Z,85.40
2018-12-27T03:12:08.150Z,85.50
2018-12-27T03:14:37.628Z,85.60
2018-12-27T03:17:06.955Z,85.30
2018-12-27T03:19:36.399Z,86.40
2018-12-27T03:22:05.746Z,86.90
2018-12-27T03:24:35.239Z,85.80
2018-12-27T03:27:04.765Z,85.20
2018-12-27T03:29:34.128Z,85.20
2018-12-27T03:32:03.518Z,85.50
2018-12-27T03:34:32.999Z,85.50
2018-12-27T03:37:02.511Z,84.50
2018-12-27T03:39:31.944Z,84.70
2018-12-27T03:42:01.383Z,84.40
2018-12-27T03:44:30.862Z,83.80
2018-12-27T03:47:00.238Z,83.00
2018-12-27T03:49:29.631Z,83.10
2018-12-27T03:51:59.043Z,83.50
2018-12-27T03:54:28.390Z,83.00
2018-12-27T03:56:57.884Z,82.90
2018-12-27T03:59:27.245Z,83.10
2018-12-27T04:01:56.623Z,83.10
2018-12-27T04:04:25.916Z,83.00
2018-12-27T04:06:55.389Z,83.00
2018-12-27T04:09:24.859Z,82.80
2018-12-27T04:11:54.143Z,82.80
2018-12-27T04:14:23.540Z,83.00
2018-12-27T04:16:52.572Z,82.80
2018-12-27T04:19:21.605Z,82.80
2018-12-27T04:21:50.716Z,83.20
2018-12-27T04:24:20.293Z,82.80
2018-12-27T04:26:49.222Z,82.80
2018-12-27T04:29:18.028Z,83.50
2018-12-27T04:31:47.070Z,83.30
2018-12-27T04:34:16.541Z,83.10
2018-12-27T04:36:45.745Z,82.70
2018-12-27T04:39:14.871Z,83.00
2018-12-27T04:41:43.901Z,83.00
2018-12-27T04:44:12.707Z,83.00
2018-12-27T04:46:41.831Z,82.80
2018-12-27T04:49:10.767Z,83.00
2018-12-27T04:51:39.747Z,83.40
2018-12-27T04:54:08.821Z,83.00
2018-12-27T04:56:37.913Z,82.80
2018-12-27T04:59:07.094Z,83.60
2018-12-27T05:01:36.164Z,83.90
2018-12-27T05:04:05.276Z,83.60
2018-12-27T05:06:34.328Z,83.00
2018-12-27T05:09:04.633Z,82.90
2018-12-27T05:11:33.414Z,83.60
2018-12-27T05:14:02.630Z,83.00
2018-12-27T05:16:31.686Z,83.50
2018-12-27T05:19:00.672Z,82.80
2018-12-27T05:21:29.762Z,83.10
2018-12-27T05:23:58.804Z,82.90
2018-12-27T05:26:27.797Z,82.90
2018-12-27T05:28:56.820Z,83.90
2018-12-27T05:31:25.813Z,83.00
2018-12-27T05:33:54.607Z,83.00
2018-12-27T05:36:23.652Z,83.20
2018-12-27T05:38:52.443Z,82.90
2018-12-27T05:41:21.512Z,82.80
2018-12-27T05:43:50.580Z,82.80
2018-12-27T05:46:19.616Z,82.80
2018-12-27T05:48:49.551Z,82.90
2018-12-27T05:51:18.598Z,82.80
2018-12-27T05:53:47.643Z,82.80
2018-12-27T05:56:16.653Z,82.90
2018-12-27T05:58:45.770Z,83.50
2018-12-27T06:01:14.834Z,82.90
2018-12-27T06:03:43.884Z,83.00
2018-12-27T06:06:12.881Z,84.50
2018-12-27T06:08:41.804Z,83.20
2018-12-27T06:11:10.724Z,82.50
2018-12-27T06:13:39.666Z,83.00
2018-12-27T06:16:08.725Z,83.20
2018-12-27T06:18:37.625Z,83.90
2018-12-27T06:21:06.970Z,83.40
2018-12-27T06:23:36.000Z,83.10
2018-12-27T06:26:04.956Z,83.20
2018-12-27T06:28:33.939Z,82.50
2018-12-27T06:31:02.878Z,83.00
2018-12-27T06:33:31.858Z,83.00
2018-12-27T06:36:01.016Z,82.90
2018-12-27T06:38:30.016Z,83.60
2018-12-27T06:40:59.043Z,83.00
2018-12-27T06:43:28.088Z,82.90
2018-12-27T06:45:57.133Z,83.60
2018-12-27T06:48:26.195Z,83.00
2018-12-27T06:50:55.230Z,82.70
2018-12-27T06:53:24.141Z,83.00
2018-12-27T06:55:53.166Z,83.00
2018-12-27T06:58:22.323Z,82.40
2018-12-27T07:00:51.227Z,83.00
2018-12-27T07:03:20.266Z,83.00
2018-12-27T07:05:49.435Z,83.20
2018-12-27T07:08:18.357Z,83.10
2018-12-27T07:10:47.415Z,82.80
2018-12-27T07:13:16.435Z,83.00
2018-12-27T07:15:45.578Z,83.10
2018-12-27T07:18:14.596Z,82.20
2018-12-27T07:20:43.733Z,83.70
2018-12-27T07:23:12.551Z,83.30
2018-12-27T07:25:41.586Z,83.10
2018-12-27T07:28:10.643Z,82.60
2018-12-27T07:30:39.796Z,82.50
2018-12-27T07:33:08.590Z,83.00
2018-12-27T07:35:37.386Z,82.70
2018-12-27T07:38:06.336Z,83.00
2018-12-27T07:40:35.214Z,83.00
2018-12-27T07:43:04.270Z,83.00
2018-12-27T07:45:33.362Z,83.10
2018-12-27T07:48:02.370Z,83.80
2018-12-27T07:50:31.320Z,82.50
2018-12-27T07:53:00.414Z,83.00
2018-12-27T07:55:29.236Z,83.10
2018-12-27T07:57:58.243Z,83.00
2018-12-27T08:00:27.257Z,83.00
2018-12-27T08:02:56.252Z,83.60
2018-12-27T08:05:25.407Z,84.40
2018-12-27T08:07:54.316Z,83.70
2018-12-27T08:10:23.365Z,84.20
2018-12-27T08:12:54.748Z,83.20
2018-12-27T08:15:24.275Z,83.10
2018-12-27T08:17:53.445Z,83.10
2018-12-27T08:20:22.503Z,83.40
2018-12-27T08:22:51.654Z,84.20
2018-12-27T08:25:21.126Z,83.10
2018-12-27T08:27:50.181Z,83.30
2018-12-27T08:30:19.283Z,83.10
2018-12-27T08:32:48.281Z,83.10
2018-12-27T08:35:17.290Z,83.20
2018-12-27T08:37:46.256Z,83.00
2018-12-27T08:40:15.154Z,83.00
2018-12-27T08:42:44.198Z,83.70
2018-12-27T08:45:13.015Z,83.20
2018-12-27T08:47:42.140Z,83.10
2018-12-27T08:50:11.061Z,83.20
2018-12-27T08:52:40.200Z,83.00
2018-12-27T08:55:09.201Z,83.30
2018-12-27T08:57:38.235Z,83.20
2018-12-27T09:00:07.739Z,83.20
2018-12-27T09:02:36.754Z,83.30
2018-12-27T09:05:06.929Z,83.30
2018-12-27T09:07:35.847Z,83.20
2018-12-27T09:10:05.567Z,83.30
2018-12-27T09:12:36.127Z,83.00
2018-12-27T09:15:05.610Z,83.30
2018-12-27T09:17:34.656Z,84.00
2018-12-27T09:20:03.570Z,83.30
2018-12-27T09:22:32.462Z,84.00
2018-12-27T09:25:01.549Z,83.50
2018-12-27T09:27:30.670Z,83.10
2018-12-27T09:29:59.484Z,83.10
2018-12-27T09:32:28.553Z,83.20
2018-12-27T09:34:57.474Z,83.10
2018-12-27T09:37:26.533Z,83.30
2018-12-27T09:39:55.651Z,83.10
2018-12-27T09:42:24.569Z,83.40
2018-12-27T09:44:53.499Z,83.10
2018-12-27T09:47:22.523Z,82.70
2018-12-27T09:49:51.345Z,83.20
2018-12-27T09:52:20.349Z,83.20
2018-12-27T09:54:49.442Z,82.70
2018-12-27T09:57:18.536Z,82.10
2018-12-27T09:59:47.575Z,82.60
2018-12-27T10:02:16.598Z,83.40
2018-12-27T10:04:45.629Z,83.10
2018-12-27T10:07:14.771Z,82.80
2018-12-27T10:09:43.681Z,82.40
2018-12-27T10:12:12.825Z,82.90
2018-12-27T10:14:41.861Z,83.10
2018-12-27T10:17:10.770Z,82.30
2018-12-27T10:19:39.889Z,82.80
2018-12-27T10:22:08.706Z,82.90
2018-12-27T10:24:37.519Z,83.20
2018-12-27T10:27:06.537Z,81.60
2018-12-27T10:29:35.639Z,81.40
2018-12-27T10:32:04.817Z,82.50
2018-12-27T10:34:33.727Z,82.20
2018-12-27T10:37:02.627Z,81.50
2018-12-27T10:39:31.705Z,82.70
2018-12-27T10:42:00.814Z,81.90
2018-12-27T10:44:29.985Z,82.90
2018-12-27T10:46:59.216Z,81.20
2018-12-27T10:49:28.262Z,80.80
2018-12-27T10:51:57.301Z,81.10
2018-12-27T10:54:26.330Z,81.70
2018-12-27T10:56:55.479Z,81.20
2018-12-27T10:59:24.376Z,81.80
2018-12-27T11:01:53.283Z,81.60
2018-12-27T11:04:22.236Z,80.80
2018-12-27T11:06:51.258Z,81.20
2018-12-27T11:09:21.045Z,80.10
2018-12-27T11:11:49.967Z,80.10
2018-12-27T11:14:18.777Z,80.10
2018-12-27T11:16:47.776Z,80.90
2018-12-27T11:19:16.950Z,80.20
2018-12-27T11:21:45.837Z,81.60
2018-12-27T11:24:15.003Z,82.00
2018-12-27T11:26:43.899Z,81.90
2018-12-27T11:29:12.917Z,81.00
2018-12-27T11:31:41.947Z,80.20
2018-12-27T11:34:10.939Z,80.60
2018-12-27T11:36:39.832Z,81.40
2018-12-27T11:39:08.770Z,80.10
2018-12-27T11:41:37.946Z,79.70
2018-12-27T11:44:07.049Z,80.20
2018-12-27T11:46:35.960Z,80.20
2018-12-27T11:49:05.019Z,80.80
2018-12-27T11:51:34.809Z,81.00
2018-12-27T11:54:03.932Z,80.80
2018-12-27T11:56:32.967Z,80.10
2018-12-27T11:59:02.162Z,81.20
2018-12-27T12:01:31.147Z,80.80
2018-12-27T12:04:00.317Z,80.40
2018-12-27T12:06:29.203Z,81.60
2018-12-27T12:08:58.253Z,81.20
2018-12-27T12:11:27.276Z,82.10
2018-12-27T12:13:56.321Z,81.80
2018-12-27T12:16:25.224Z,80.10
2018-12-27T12:18:57.561Z,81.20
2018-12-27T12:21:26.713Z,82.00
2018-12-27T12:23:55.819Z,81.50
2018-12-27T12:26:24.849Z,82.40
2018-12-27T12:28:53.783Z,81.00
2018-12-27T12:31:22.806Z,81.80
2018-12-27T12:33:51.706Z,81.60
2018-12-27T12:36:20.614Z,81.20
2018-12-27T12:38:49.638Z,81.00
2018-12-27T12:41:18.819Z,81.50
2018-12-27T12:43:47.727Z,81.40
2018-12-27T12:46:16.753Z,81.70
2018-12-27T12:48:45.780Z,80.70
2018-12-27T12:51:14.790Z,80.40
2018-12-27T12:53:43.838Z,80.80
2018-12-27T12:56:12.841Z,81.00
2018-12-27T12:58:41.840Z,81.10
2018-12-27T13:01:10.847Z,81.50
2018-12-27T13:03:39.880Z,81.90
2018-12-27T13:06:08.908Z,81.70
2018-12-27T13:08:37.944Z,83.20
2018-12-27T13:11:06.846Z,81.60
2018-12-27T13:13:35.784Z,82.00
2018-12-27T13:16:04.875Z,81.40
2018-12-27T13:18:33.788Z,82.10
2018-12-27T13:21:02.741Z,81.50
2018-12-27T13:23:31.657Z,80.80
2018-12-27T13:26:00.730Z,81.70
2018-12-27T13:28:29.672Z,81.70
2018-12-27T13:30:58.563Z,82.50
2018-12-27T13:33:27.626Z,82.00
2018-12-27T13:35:56.747Z,82.10
2018-12-27T13:38:25.677Z,82.00
2018-12-27T13:40:54.606Z,82.90
2018-12-27T13:43:23.619Z,82.00
2018-12-27T13:45:52.712Z,81.10
2018-12-27T13:48:22.301Z,81.10
2018-12-27T13:50:51.287Z,81.50
2018-12-27T13:53:20.329Z,82.50
2018-12-27T13:55:49.450Z,81.10
2018-12-27T13:58:18.277Z,82.00
2018-12-27T14:00:47.315Z,81.60
2018-12-27T14:03:16.372Z,81.70
2018-12-27T14:05:45.500Z,81.10
2018-12-27T14:08:14.425Z,83.00
2018-12-27T14:10:43.561Z,80.70
2018-12-27T14:13:12.699Z,81.60
2018-12-27T14:15:41.729Z,81.40
2018-12-27T14:18:10.655Z,81.10
2018-12-27T14:20:39.714Z,81.70
2018-12-27T14:23:08.625Z,82.20
2018-12-27T14:25:37.660Z,81.60
2018-12-27T14:28:07.601Z,82.00
2018-12-27T14:30:36.721Z,79.90
2018-12-27T14:33:05.693Z,81.40
2018-12-27T14:35:34.635Z,82.20
2018-12-27T14:38:03.600Z,82.10
2018-12-27T14:40:32.708Z,82.50
2018-12-27T14:43:01.744Z,82.10
2018-12-27T14:45:30.768Z,82.80
2018-12-27T14:47:59.821Z,83.40
2018-12-27T14:50:28.909Z,82.80
2018-12-27T14:52:58.034Z,82.70
2018-12-27T14:55:26.996Z,83.20
2018-12-27T14:57:56.206Z,82.70
2018-12-27T15:00:25.215Z,82.60
2018-12-27T15:02:54.039Z,82.40
2018-12-27T15:05:23.167Z,83.50
2018-12-27T15:07:53.472Z,83.00
2018-12-27T15:10:22.490Z,83.00
2018-12-27T15:12:51.503Z,82.90
2018-12-27T15:15:20.698Z,82.50
2018-12-27T15:17:49.819Z,83.20
2018-12-27T15:20:18.715Z,83.40
2018-12-27T15:22:47.861Z,83.10
2018-12-27T15:25:16.926Z,82.90
2018-12-27T15:27:46.059Z,82.90
2018-12-27T15:30:15.081Z,82.20
2018-12-27T15:32:44.094Z,82.70
2018-12-27T15:35:13.183Z,82.60
2018-12-27T15:37:42.210Z,82.20
2018-12-27T15:40:11.334Z,82.20
2018-12-27T15:42:40.255Z,82.80
2018-12-27T15:45:09.066Z,82.90
2018-12-27T15:47:37.920Z,82.30
2018-12-27T15:50:07.685Z,82.70
2018-12-27T15:52:36.757Z,83.00
2018-12-27T15:55:05.892Z,83.00
2018-12-27T15:57:34.893Z,83.00
2018-12-27T16:00:04.323Z,82.00
2018-12-27T16:02:33.354Z,82.70
2018-12-27T16:05:02.477Z,83.40
2018-12-27T16:07:32.928Z,83.40
2018-12-27T16:10:01.812Z,83.40
2018-12-27T16:12:31.021Z,83.40
2018-12-27T16:14:59.945Z,83.10
2018-12-27T16:17:28.838Z,83.60
2018-12-27T16:19:57.778Z,82.20
2018-12-27T16:22:26.800Z,83.20
2018-12-27T16:24:55.953Z,83.70
2018-12-27T16:27:24.994Z,83.60
2018-12-27T16:29:54.023Z,83.40
2018-12-27T16:32:23.016Z,83.50
2018-12-27T16:34:52.067Z,83.50
2018-12-27T16:37:21.123Z,82.90
2018-12-27T16:39:50.256Z,83.30
2018-12-27T16:42:21.944Z,83.40
2018-12-27T16:44:50.131Z,83.40
2018-12-27T16:47:19.188Z,83.40
2018-12-27T16:49:48.195Z,83.10
2018-12-27T16:52:17.247Z,83.40
2018-12-27T16:54:46.421Z,83.50
2018-12-27T16:57:19.673Z,83.70
2018-12-27T16:59:46.163Z,83.40
2018-12-27T17:02:15.104Z,83.40
2018-12-27T17:04:44.160Z,84.00
2018-12-27T17:07:16.259Z,84.10
2018-12-27T17:09:43.808Z,83.50
2018-12-27T17:12:12.963Z,83.70
2018-12-27T17:14:41.832Z,83.50
2018-12-27T17:17:10.888Z,83.80
2018-12-27T17:19:40.168Z,84.10
2018-12-27T17:22:09.298Z,83.50
2018-12-27T17:24:38.691Z,84.10
2018-12-27T17:27:07.696Z,83.90
2018-12-27T17:29:36.744Z,84.40
2018-12-27T17:32:05.735Z,84.20
2018-12-27T17:34:34.655Z,85.40
2018-12-27T17:37:03.783Z,84.50
2018-12-27T17:39:32.847Z,84.40
2018-12-27T17:42:01.782Z,84.50
2018-12-27T17:44:30.825Z,84.40
2018-12-27T17:46:59.739Z,84.70
2018-12-27T17:49:28.764Z,83.50
2018-12-27T17:51:57.702Z,84.80
2018-12-27T17:54:26.798Z,85.20
2018-12-27T17:56:55.895Z,85.70
2018-12-27T17:59:24.985Z,84.90
2018-12-27T18:01:54.175Z,84.00
2018-12-27T18:04:23.388Z,85.00
2018-12-27T18:06:52.436Z,84.70
2018-12-27T18:09:21.454Z,84.50
2018-12-27T18:11:50.528Z,84.90
2018-12-27T18:14:19.513Z,85.10
2018-12-27T18:16:48.416Z,84.00
2018-12-27T18:19:17.463Z,83.90
2018-12-27T18:21:46.467Z,84.70
2018-12-27T18:24:15.503Z,84.00
2018-12-27T18:26:44.524Z,84.00
2018-12-27T18:29:13.556Z,85.00
2018-12-27T18:31:42.445Z,84.80
2018-12-27T18:34:11.389Z,84.80
2018-12-27T18:36:40.541Z,84.50
2018-12-27T18:39:09.705Z,84.90
2018-12-27T18:41:38.724Z,85.50
2018-12-27T18:44:07.752Z,85.50
2018-12-27T18:46:36.926Z,84.00
2018-12-27T18:49:05.827Z,84.40
2018-12-27T18:51:34.878Z,85.20
2018-12-27T18:54:03.920Z,85.00
2018-12-27T18:56:32.981Z,85.40
2018-12-27T18:59:01.961Z,85.90
2018-12-27T19:01:30.936Z,85.30
2018-12-27T19:03:59.847Z,85.70
2018-12-27T19:06:28.875Z,86.10
2018-12-27T19:08:57.957Z,85.40
2018-12-27T19:12:03.234Z,85.50
2018-12-27T19:14:32.057Z,85.80
2018-12-27T19:17:01.276Z,85.60
2018-12-27T19:19:30.285Z,86.10
2018-12-27T19:22:07.389Z,86.40
2018-12-27T19:24:36.437Z,85.60
2018-12-27T19:27:05.487Z,85.60
2018-12-27T19:29:34.519Z,85.90
2018-12-27T19:32:03.534Z,85.40
2018-12-27T19:34:32.651Z,86.10
2018-12-27T19:37:01.664Z,85.90
2018-12-27T19:39:30.741Z,86.30
2018-12-27T19:41:59.771Z,85.60
2018-12-27T19:44:28.961Z,87.00
2018-12-27T19:46:57.966Z,85.80
2018-12-27T19:49:27.118Z,85.30
2018-12-27T19:51:56.274Z,85.40
2018-12-27T19:54:31.848Z,85.80
2018-12-27T19:56:57.160Z,86.40
2018-12-27T19:59:26.253Z,86.00
2018-12-27T20:01:56.762Z,85.60
2018-12-27T20:04:25.967Z,85.40
2018-12-27T20:06:54.930Z,86.10
2018-12-27T20:09:23.918Z,85.70
2018-12-27T20:11:52.937Z,84.90
2018-12-27T20:14:21.857Z,84.70
2018-12-27T20:16:50.959Z,85.50
2018-12-27T20:19:19.969Z,84.70
2018-12-27T20:21:48.836Z,86.00
2018-12-27T20:24:17.898Z,84.90
2018-12-27T20:26:46.915Z,85.50
2018-12-27T20:29:15.955Z,85.80
2018-12-27T20:31:44.992Z,85.00
2018-12-27T20:34:13.886Z,85.20
2018-12-27T20:36:42.824Z,84.80
2018-12-27T20:39:11.879Z,84.40
2018-12-27T20:41:40.937Z,85.60
2018-12-27T20:44:10.023Z,84.50
2018-12-27T20:46:38.924Z,84.80
2018-12-27T20:49:08.202Z,85.00
2018-12-27T20:51:37.352Z,85.30
2018-12-27T20:54:06.267Z,84.50
2018-12-27T20:56:35.448Z,84.80
2018-12-27T20:59:04.485Z,85.30
2018-12-27T21:01:33.533Z,85.70
2018-12-27T21:04:02.523Z,85.00
2018-12-27T21:06:31.541Z,85.00
2018-12-27T21:09:00.556Z,85.40
2018-12-27T21:11:29.798Z,85.40
2018-12-27T21:13:58.825Z,85.40
2018-12-27T21:16:28.121Z,85.10
2018-12-27T21:18:57.146Z,85.60
2018-12-27T21:21:26.535Z,85.40
2018-12-27T21:23:55.532Z,84.80
2018-12-27T21:26:24.542Z,85.30
2018-12-27T21:28:53.452Z,85.60
2018-12-27T21:31:22.826Z,85.30
2018-12-27T21:33:51.710Z,85.40
2018-12-27T21:36:21.353Z,85.00
2018-12-27T21:38:50.595Z,85.30
2018-12-27T21:41:19.537Z,85.50
2018-12-27T21:43:48.743Z,85.30
2018-12-27T21:46:20.965Z,85.80
2018-12-27T21:48:49.997Z,86.70
2018-12-27T21:51:19.111Z,87.90
2018-12-27T21:53:47.932Z,87.00
2018-12-27T21:56:16.966Z,86.70
2018-12-27T21:58:46.082Z,87.00
2018-12-27T22:01:15.215Z,86.60
2018-12-27T22:03:44.224Z,86.40
2018-12-27T22:06:13.345Z,86.60
2018-12-27T22:08:42.219Z,85.90
2018-12-27T22:11:11.339Z,86.70
2018-12-27T22:13:40.262Z,87.00
2018-12-27T22:16:09.189Z,86.40
2018-12-27T22:18:38.114Z,86.70
2018-12-27T22:21:07.167Z,87.00
2018-12-27T22:23:36.272Z,87.10
2018-12-27T22:26:05.280Z,87.20
2018-12-27T22:28:34.323Z,86.10
2018-12-27T22:31:03.334Z,86.10
2018-12-27T22:33:32.351Z,85.30
2018-12-27T22:36:01.413Z,86.00
2018-12-27T22:38:35.560Z,86.30
2018-12-27T22:41:01.082Z,87.20
2018-12-27T22:43:30.195Z,86.40
2018-12-27T22:45:59.221Z,86.70
2018-12-27T22:48:28.260Z,87.10
2018-12-27T22:50:57.389Z,87.40
2018-12-27T22:53:26.527Z,87.30
2018-12-27T22:55:58.510Z,87.00
2018-12-27T22:58:27.590Z,87.40
2018-12-27T23:00:56.627Z,86.40
2018-12-27T23:03:25.728Z,86.20
2018-12-27T23:05:54.878Z,86.40
2018-12-27T23:08:23.923Z,86.50
2018-12-27T23:10:53.076Z,86.50
2018-12-27T23:13:22.102Z,86.70
2018-12-27T23:15:51.032Z,86.20
2018-12-27T23:18:19.953Z,87.50
2018-12-27T23:20:49.102Z,86.50
2018-12-27T23:23:17.957Z,86.40
2018-12-27T23:25:47.132Z,86.70
2018-12-27T23:28:16.170Z,87.20
2018-12-27T23:30:45.016Z,87.40
2018-12-27T23:33:13.930Z,87.80
2018-12-27T23:35:42.919Z,87.00
2018-12-27T23:38:11.833Z,86.80
2018-12-27T23:40:40.831Z,86.90
2018-12-27T23:43:10.013Z,86.60
2018-12-27T23:45:38.909Z,86.40
2018-12-27T23:48:07.731Z,86.10
2018-12-27T23:50:37.819Z,86.70
2018-12-27T23:53:06.884Z,86.20
2018-12-27T23:55:35.916Z,86.50
2018-12-27T23:58:05.051Z,86.50
